sensor_id;sensor_type;location;lat;lon;timestamp;pressure;altitude;pressure_sealevel;temperature
12854;BMP180;6495;51.808;7.478;2023-04-24T00:00:59;99525.00;;;12.30
12854;BMP180;6495;51.808;7.478;2023-04-24T00:04:19;99529.00;;;12.30
12854;BMP180;6495;51.808;7.478;2023-04-24T00:10:22;99525.00;;;12.20
12854;BMP180;6495;51.808;7.478;2023-04-24T00:13:11;99527.00;;;12.20
12854;BMP180;6495;51.808;7.478;2023-04-24T00:16:06;99531.00;;;12.20
12854;BMP180;6495;51.808;7.478;2023-04-24T00:18:57;99533.00;;;12.20
12854;BMP180;6495;51.808;7.478;2023-04-24T00:21:53;99529.00;;;12.20
12854;BMP180;6495;51.808;7.478;2023-04-24T00:24:49;99525.00;;;12.20
12854;BMP180;6495;51.808;7.478;2023-04-24T00:27:42;99532.00;;;12.20
12854;BMP180;6495;51.808;7.478;2023-04-24T00:30:34;99529.00;;;12.20
12854;BMP180;6495;51.808;7.478;2023-04-24T00:33:25;99523.00;;;12.20
12854;BMP180;6495;51.808;7.478;2023-04-24T00:36:13;99523.00;;;12.20
12854;BMP180;6495;51.808;7.478;2023-04-24T00:39:02;99522.00;;;12.20
12854;BMP180;6495;51.808;7.478;2023-04-24T00:41:59;99525.00;;;12.20
12854;BMP180;6495;51.808;7.478;2023-04-24T00:44:53;99517.00;;;12.20
12854;BMP180;6495;51.808;7.478;2023-04-24T00:47:52;99511.00;;;12.10
12854;BMP180;6495;51.808;7.478;2023-04-24T00:50:41;99512.00;;;12.00
12854;BMP180;6495;51.808;7.478;2023-04-24T00:53:30;99517.00;;;12.00
12854;BMP180;6495;51.808;7.478;2023-04-24T00:56:19;99507.00;;;12.00
12854;BMP180;6495;51.808;7.478;2023-04-24T00:59:10;99510.00;;;12.10
12854;BMP180;6495;51.808;7.478;2023-04-24T01:01:59;99517.00;;;12.10
12854;BMP180;6495;51.808;7.478;2023-04-24T01:04:49;99514.00;;;12.00
12854;BMP180;6495;51.808;7.478;2023-04-24T01:07:39;99516.00;;;12.00
12854;BMP180;6495;51.808;7.478;2023-04-24T01:10:32;99525.00;;;12.10
12854;BMP180;6495;51.808;7.478;2023-04-24T01:13:21;99503.00;;;12.00
12854;BMP180;6495;51.808;7.478;2023-04-24T01:16:14;99512.00;;;12.00
12854;BMP180;6495;51.808;7.478;2023-04-24T01:19:11;99505.00;;;12.00
12854;BMP180;6495;51.808;7.478;2023-04-24T01:22:08;99510.00;;;12.00
12854;BMP180;6495;51.808;7.478;2023-04-24T01:25:08;99509.00;;;12.00
12854;BMP180;6495;51.808;7.478;2023-04-24T01:27:59;99507.00;;;12.00
12854;BMP180;6495;51.808;7.478;2023-04-24T01:30:55;99511.00;;;12.00
12854;BMP180;6495;51.808;7.478;2023-04-24T01:33:45;99515.00;;;12.00
12854;BMP180;6495;51.808;7.478;2023-04-24T01:36:38;99513.00;;;12.00
12854;BMP180;6495;51.808;7.478;2023-04-24T01:39:29;99517.00;;;12.00
12854;BMP180;6495;51.808;7.478;2023-04-24T01:42:22;99528.00;;;12.00
12854;BMP180;6495;51.808;7.478;2023-04-24T01:45:12;99524.00;;;12.00
12854;BMP180;6495;51.808;7.478;2023-04-24T01:48:02;99516.00;;;12.10
12854;BMP180;6495;51.808;7.478;2023-04-24T01:50:58;99513.00;;;12.10
12854;BMP180;6495;51.808;7.478;2023-04-24T01:53:59;99517.00;;;12.10
12854;BMP180;6495;51.808;7.478;2023-04-24T01:56:52;99507.00;;;12.00
12854;BMP180;6495;51.808;7.478;2023-04-24T01:59:53;99507.00;;;12.00
12854;BMP180;6495;51.808;7.478;2023-04-24T02:02:42;99517.00;;;11.90
12854;BMP180;6495;51.808;7.478;2023-04-24T02:05:34;99513.00;;;11.90
12854;BMP180;6495;51.808;7.478;2023-04-24T02:08:23;99517.00;;;11.80
12854;BMP180;6495;51.808;7.478;2023-04-24T02:11:11;99523.00;;;11.80
12854;BMP180;6495;51.808;7.478;2023-04-24T02:14:01;99512.00;;;11.70
12854;BMP180;6495;51.808;7.478;2023-04-24T02:16:49;99519.00;;;11.70
12854;BMP180;6495;51.808;7.478;2023-04-24T02:19:38;99512.00;;;11.60
12854;BMP180;6495;51.808;7.478;2023-04-24T02:22:27;99515.00;;;11.50
12854;BMP180;6495;51.808;7.478;2023-04-24T02:25:16;99530.00;;;11.50
12854;BMP180;6495;51.808;7.478;2023-04-24T02:28:04;99511.00;;;11.50
12854;BMP180;6495;51.808;7.478;2023-04-24T02:30:55;99523.00;;;11.40
12854;BMP180;6495;51.808;7.478;2023-04-24T02:33:43;99522.00;;;11.40
12854;BMP180;6495;51.808;7.478;2023-04-24T02:36:32;99517.00;;;11.40
12854;BMP180;6495;51.808;7.478;2023-04-24T02:39:20;99519.00;;;11.30
12854;BMP180;6495;51.808;7.478;2023-04-24T02:42:09;99526.00;;;11.30
12854;BMP180;6495;51.808;7.478;2023-04-24T02:44:57;99523.00;;;11.30
12854;BMP180;6495;51.808;7.478;2023-04-24T02:47:47;99536.00;;;11.20
12854;BMP180;6495;51.808;7.478;2023-04-24T02:50:46;99541.00;;;11.30
12854;BMP180;6495;51.808;7.478;2023-04-24T02:53:35;99529.00;;;11.30
12854;BMP180;6495;51.808;7.478;2023-04-24T02:56:23;99526.00;;;11.30
12854;BMP180;6495;51.808;7.478;2023-04-24T02:59:13;99521.00;;;11.30
12854;BMP180;6495;51.808;7.478;2023-04-24T03:02:01;99530.00;;;11.30
12854;BMP180;6495;51.808;7.478;2023-04-24T03:04:51;99539.00;;;11.30
12854;BMP180;6495;51.808;7.478;2023-04-24T03:07:40;99540.00;;;11.20
12854;BMP180;6495;51.808;7.478;2023-04-24T03:10:29;99538.00;;;11.20
12854;BMP180;6495;51.808;7.478;2023-04-24T03:13:17;99538.00;;;11.20
12854;BMP180;6495;51.808;7.478;2023-04-24T03:16:05;99546.00;;;11.10
12854;BMP180;6495;51.808;7.478;2023-04-24T03:18:54;99533.00;;;11.10
12854;BMP180;6495;51.808;7.478;2023-04-24T03:21:47;99533.00;;;11.10
12854;BMP180;6495;51.808;7.478;2023-04-24T03:24:36;99543.00;;;11.00
12854;BMP180;6495;51.808;7.478;2023-04-24T03:27:24;99540.00;;;11.00
12854;BMP180;6495;51.808;7.478;2023-04-24T03:30:15;99553.00;;;11.00
12854;BMP180;6495;51.808;7.478;2023-04-24T03:33:09;99550.00;;;11.00
12854;BMP180;6495;51.808;7.478;2023-04-24T03:36:08;99546.00;;;11.00
12854;BMP180;6495;51.808;7.478;2023-04-24T03:39:01;99545.00;;;10.90
12854;BMP180;6495;51.808;7.478;2023-04-24T03:41:53;99548.00;;;10.90
12854;BMP180;6495;51.808;7.478;2023-04-24T03:44:55;99543.00;;;10.90
12854;BMP180;6495;51.808;7.478;2023-04-24T03:47:49;99554.00;;;10.90
12854;BMP180;6495;51.808;7.478;2023-04-24T03:50:39;99536.00;;;10.80
12854;BMP180;6495;51.808;7.478;2023-04-24T03:53:30;99547.00;;;10.80
12854;BMP180;6495;51.808;7.478;2023-04-24T03:56:22;99546.00;;;10.70
12854;BMP180;6495;51.808;7.478;2023-04-24T03:59:10;99538.00;;;10.60
12854;BMP180;6495;51.808;7.478;2023-04-24T04:02:00;99551.00;;;10.60
12854;BMP180;6495;51.808;7.478;2023-04-24T04:04:48;99546.00;;;10.60
12854;BMP180;6495;51.808;7.478;2023-04-24T04:07:37;99541.00;;;10.60
12854;BMP180;6495;51.808;7.478;2023-04-24T04:10:26;99539.00;;;10.60
12854;BMP180;6495;51.808;7.478;2023-04-24T04:13:16;99553.00;;;10.60
12854;BMP180;6495;51.808;7.478;2023-04-24T04:16:05;99563.00;;;10.60
12854;BMP180;6495;51.808;7.478;2023-04-24T04:18:54;99553.00;;;10.60
12854;BMP180;6495;51.808;7.478;2023-04-24T04:21:43;99563.00;;;10.60
12854;BMP180;6495;51.808;7.478;2023-04-24T04:24:46;99561.00;;;10.60
12854;BMP180;6495;51.808;7.478;2023-04-24T04:27:35;99553.00;;;10.60
12854;BMP180;6495;51.808;7.478;2023-04-24T04:30:31;99569.00;;;10.60
12854;BMP180;6495;51.808;7.478;2023-04-24T04:33:24;99573.00;;;10.60
12854;BMP180;6495;51.808;7.478;2023-04-24T04:36:13;99565.00;;;10.60
12854;BMP180;6495;51.808;7.478;2023-04-24T04:39:06;99569.00;;;10.60
12854;BMP180;6495;51.808;7.478;2023-04-24T04:42:15;99563.00;;;10.60
12854;BMP180;6495;51.808;7.478;2023-04-24T04:45:14;99571.00;;;10.60
12854;BMP180;6495;51.808;7.478;2023-04-24T04:48:28;99580.00;;;10.60
12854;BMP180;6495;51.808;7.478;2023-04-24T04:51:20;99584.00;;;10.60
12854;BMP180;6495;51.808;7.478;2023-04-24T04:54:14;99589.00;;;10.60
12854;BMP180;6495;51.808;7.478;2023-04-24T04:57:03;99582.00;;;10.60
12854;BMP180;6495;51.808;7.478;2023-04-24T04:59:52;99581.00;;;10.60
12854;BMP180;6495;51.808;7.478;2023-04-24T05:02:53;99583.00;;;10.60
12854;BMP180;6495;51.808;7.478;2023-04-24T05:06:06;99580.00;;;10.70
12854;BMP180;6495;51.808;7.478;2023-04-24T05:08:57;99577.00;;;10.60
12854;BMP180;6495;51.808;7.478;2023-04-24T05:11:59;99579.00;;;10.60
12854;BMP180;6495;51.808;7.478;2023-04-24T05:14:53;99583.00;;;10.70
12854;BMP180;6495;51.808;7.478;2023-04-24T05:17:42;99581.00;;;10.70
12854;BMP180;6495;51.808;7.478;2023-04-24T05:20:32;99574.00;;;10.70
12854;BMP180;6495;51.808;7.478;2023-04-24T05:23:21;99573.00;;;10.70
12854;BMP180;6495;51.808;7.478;2023-04-24T05:26:13;99585.00;;;10.70
12854;BMP180;6495;51.808;7.478;2023-04-24T05:29:02;99580.00;;;10.70
12854;BMP180;6495;51.808;7.478;2023-04-24T05:31:51;99569.00;;;10.70
12854;BMP180;6495;51.808;7.478;2023-04-24T05:34:40;99580.00;;;10.70
12854;BMP180;6495;51.808;7.478;2023-04-24T05:37:29;99576.00;;;10.70
12854;BMP180;6495;51.808;7.478;2023-04-24T05:40:19;99583.00;;;10.70
12854;BMP180;6495;51.808;7.478;2023-04-24T05:43:08;99581.00;;;10.70
12854;BMP180;6495;51.808;7.478;2023-04-24T05:45:56;99561.00;;;10.70
12854;BMP180;6495;51.808;7.478;2023-04-24T05:48:45;99577.00;;;10.70
12854;BMP180;6495;51.808;7.478;2023-04-24T05:51:33;99586.00;;;10.70
12854;BMP180;6495;51.808;7.478;2023-04-24T05:54:22;99582.00;;;10.70
12854;BMP180;6495;51.808;7.478;2023-04-24T05:57:13;99578.00;;;10.70
12854;BMP180;6495;51.808;7.478;2023-04-24T06:00:13;99583.00;;;10.70
12854;BMP180;6495;51.808;7.478;2023-04-24T06:03:09;99571.00;;;10.70
12854;BMP180;6495;51.808;7.478;2023-04-24T06:06:08;99578.00;;;10.60
12854;BMP180;6495;51.808;7.478;2023-04-24T06:08:57;99578.00;;;10.60
12854;BMP180;6495;51.808;7.478;2023-04-24T06:11:47;99579.00;;;10.60
12854;BMP180;6495;51.808;7.478;2023-04-24T06:14:37;99577.00;;;10.70
12854;BMP180;6495;51.808;7.478;2023-04-24T06:17:39;99594.00;;;10.60
12854;BMP180;6495;51.808;7.478;2023-04-24T06:20:27;99580.00;;;10.60
12854;BMP180;6495;51.808;7.478;2023-04-24T06:23:16;99588.00;;;10.60
12854;BMP180;6495;51.808;7.478;2023-04-24T06:26:04;99578.00;;;10.70
12854;BMP180;6495;51.808;7.478;2023-04-24T06:28:53;99596.00;;;10.60
12854;BMP180;6495;51.808;7.478;2023-04-24T06:31:43;99596.00;;;10.70
12854;BMP180;6495;51.808;7.478;2023-04-24T06:34:32;99587.00;;;10.60
12854;BMP180;6495;51.808;7.478;2023-04-24T06:37:21;99606.00;;;10.60
12854;BMP180;6495;51.808;7.478;2023-04-24T06:40:10;99599.00;;;10.50
12854;BMP180;6495;51.808;7.478;2023-04-24T06:42:59;99601.00;;;10.50
12854;BMP180;6495;51.808;7.478;2023-04-24T06:45:49;99606.00;;;10.40
12854;BMP180;6495;51.808;7.478;2023-04-24T06:48:39;99606.00;;;10.40
12854;BMP180;6495;51.808;7.478;2023-04-24T06:51:28;99602.00;;;10.40
12854;BMP180;6495;51.808;7.478;2023-04-24T06:54:17;99606.00;;;10.40
12854;BMP180;6495;51.808;7.478;2023-04-24T06:57:06;99609.00;;;10.50
12854;BMP180;6495;51.808;7.478;2023-04-24T06:59:54;99595.00;;;10.40
12854;BMP180;6495;51.808;7.478;2023-04-24T07:02:43;99604.00;;;10.40
12854;BMP180;6495;51.808;7.478;2023-04-24T07:05:33;99614.00;;;10.40
12854;BMP180;6495;51.808;7.478;2023-04-24T07:08:22;99600.00;;;10.40
12854;BMP180;6495;51.808;7.478;2023-04-24T07:11:11;99606.00;;;10.40
12854;BMP180;6495;51.808;7.478;2023-04-24T07:13:59;99610.00;;;10.40
12854;BMP180;6495;51.808;7.478;2023-04-24T07:16:51;99595.00;;;10.40
12854;BMP180;6495;51.808;7.478;2023-04-24T07:19:40;99593.00;;;10.40
12854;BMP180;6495;51.808;7.478;2023-04-24T07:22:30;99608.00;;;10.40
12854;BMP180;6495;51.808;7.478;2023-04-24T07:25:19;99605.00;;;10.30
12854;BMP180;6495;51.808;7.478;2023-04-24T07:28:11;99605.00;;;10.40
12854;BMP180;6495;51.808;7.478;2023-04-24T07:31:00;99610.00;;;10.40
12854;BMP180;6495;51.808;7.478;2023-04-24T07:33:49;99617.00;;;10.40
12854;BMP180;6495;51.808;7.478;2023-04-24T07:36:37;99612.00;;;10.40
12854;BMP180;6495;51.808;7.478;2023-04-24T07:39:27;99601.00;;;10.40
12854;BMP180;6495;51.808;7.478;2023-04-24T07:42:16;99609.00;;;10.40
12854;BMP180;6495;51.808;7.478;2023-04-24T07:45:06;99616.00;;;10.40
12854;BMP180;6495;51.808;7.478;2023-04-24T07:47:56;99612.00;;;10.30
12854;BMP180;6495;51.808;7.478;2023-04-24T07:50:45;99611.00;;;10.40
12854;BMP180;6495;51.808;7.478;2023-04-24T07:53:33;99621.00;;;10.40
12854;BMP180;6495;51.808;7.478;2023-04-24T07:56:23;99610.00;;;10.40
12854;BMP180;6495;51.808;7.478;2023-04-24T07:59:14;99620.00;;;10.40
12854;BMP180;6495;51.808;7.478;2023-04-24T08:02:02;99611.00;;;10.40
12854;BMP180;6495;51.808;7.478;2023-04-24T08:04:51;99618.00;;;10.40
12854;BMP180;6495;51.808;7.478;2023-04-24T08:07:40;99613.00;;;10.40
12854;BMP180;6495;51.808;7.478;2023-04-24T08:10:30;99620.00;;;10.50
12854;BMP180;6495;51.808;7.478;2023-04-24T08:13:28;99623.00;;;10.50
12854;BMP180;6495;51.808;7.478;2023-04-24T08:16:17;99632.00;;;10.50
12854;BMP180;6495;51.808;7.478;2023-04-24T08:19:06;99629.00;;;10.50
12854;BMP180;6495;51.808;7.478;2023-04-24T08:21:54;99631.00;;;10.50
12854;BMP180;6495;51.808;7.478;2023-04-24T08:24:45;99634.00;;;10.50
12854;BMP180;6495;51.808;7.478;2023-04-24T08:27:34;99638.00;;;10.50
12854;BMP180;6495;51.808;7.478;2023-04-24T08:30:25;99643.00;;;10.50
12854;BMP180;6495;51.808;7.478;2023-04-24T08:33:14;99641.00;;;10.50
12854;BMP180;6495;51.808;7.478;2023-04-24T08:36:03;99656.00;;;10.50
12854;BMP180;6495;51.808;7.478;2023-04-24T08:38:51;99661.00;;;10.50
12854;BMP180;6495;51.808;7.478;2023-04-24T08:41:42;99668.00;;;10.50
12854;BMP180;6495;51.808;7.478;2023-04-24T08:44:32;99664.00;;;10.40
12854;BMP180;6495;51.808;7.478;2023-04-24T08:47:23;99671.00;;;10.40
12854;BMP180;6495;51.808;7.478;2023-04-24T08:50:12;99665.00;;;10.50
12854;BMP180;6495;51.808;7.478;2023-04-24T08:53:01;99676.00;;;10.50
12854;BMP180;6495;51.808;7.478;2023-04-24T08:55:54;99677.00;;;10.60
12854;BMP180;6495;51.808;7.478;2023-04-24T08:58:44;99678.00;;;10.60
12854;BMP180;6495;51.808;7.478;2023-04-24T09:01:33;99686.00;;;10.60
12854;BMP180;6495;51.808;7.478;2023-04-24T09:04:25;99682.00;;;10.60
12854;BMP180;6495;51.808;7.478;2023-04-24T09:07:16;99689.00;;;10.70
12854;BMP180;6495;51.808;7.478;2023-04-24T09:10:08;99695.00;;;10.60
12854;BMP180;6495;51.808;7.478;2023-04-24T09:12:58;99695.00;;;10.60
12854;BMP180;6495;51.808;7.478;2023-04-24T09:15:49;99710.00;;;10.60
12854;BMP180;6495;51.808;7.478;2023-04-24T09:18:52;99710.00;;;10.70
12854;BMP180;6495;51.808;7.478;2023-04-24T09:21:46;99717.00;;;10.70
12854;BMP180;6495;51.808;7.478;2023-04-24T09:24:35;99715.00;;;10.70
12854;BMP180;6495;51.808;7.478;2023-04-24T09:27:48;99722.00;;;10.70
12854;BMP180;6495;51.808;7.478;2023-04-24T09:30:37;99722.00;;;10.70
12854;BMP180;6495;51.808;7.478;2023-04-24T09:33:25;99728.00;;;10.70
12854;BMP180;6495;51.808;7.478;2023-04-24T09:36:17;99733.00;;;10.80
12854;BMP180;6495;51.808;7.478;2023-04-24T09:39:09;99732.00;;;10.80
12854;BMP180;6495;51.808;7.478;2023-04-24T09:42:01;99735.00;;;10.80
12854;BMP180;6495;51.808;7.478;2023-04-24T09:44:56;99743.00;;;10.80
12854;BMP180;6495;51.808;7.478;2023-04-24T09:48:01;99753.00;;;10.80
12854;BMP180;6495;51.808;7.478;2023-04-24T09:50:52;99755.00;;;10.80
12854;BMP180;6495;51.808;7.478;2023-04-24T09:53:45;99756.00;;;10.80
12854;BMP180;6495;51.808;7.478;2023-04-24T09:56:44;99764.00;;;10.80
12854;BMP180;6495;51.808;7.478;2023-04-24T09:59:33;99777.00;;;10.90
12854;BMP180;6495;51.808;7.478;2023-04-24T10:02:26;99773.00;;;10.80
12854;BMP180;6495;51.808;7.478;2023-04-24T10:05:15;99776.00;;;10.80
12854;BMP180;6495;51.808;7.478;2023-04-24T10:08:06;99780.00;;;10.80
12854;BMP180;6495;51.808;7.478;2023-04-24T10:11:20;99784.00;;;10.90
12854;BMP180;6495;51.808;7.478;2023-04-24T10:14:12;99797.00;;;10.90
12854;BMP180;6495;51.808;7.478;2023-04-24T10:17:01;99789.00;;;10.90
12854;BMP180;6495;51.808;7.478;2023-04-24T10:19:51;99787.00;;;10.90
12854;BMP180;6495;51.808;7.478;2023-04-24T10:22:40;99789.00;;;10.90
12854;BMP180;6495;51.808;7.478;2023-04-24T10:25:32;99799.00;;;10.90
12854;BMP180;6495;51.808;7.478;2023-04-24T10:28:21;99799.00;;;10.80
12854;BMP180;6495;51.808;7.478;2023-04-24T10:31:12;99827.00;;;10.70
12854;BMP180;6495;51.808;7.478;2023-04-24T10:34:02;99839.00;;;10.60
12854;BMP180;6495;51.808;7.478;2023-04-24T10:36:52;99843.00;;;10.60
12854;BMP180;6495;51.808;7.478;2023-04-24T10:39:47;99857.00;;;10.60
12854;BMP180;6495;51.808;7.478;2023-04-24T10:42:40;99861.00;;;10.50
12854;BMP180;6495;51.808;7.478;2023-04-24T10:45:29;99866.00;;;10.50
12854;BMP180;6495;51.808;7.478;2023-04-24T10:48:26;99876.00;;;10.40
12854;BMP180;6495;51.808;7.478;2023-04-24T10:51:15;99884.00;;;10.40
12854;BMP180;6495;51.808;7.478;2023-04-24T10:54:25;99898.00;;;10.40
12854;BMP180;6495;51.808;7.478;2023-04-24T10:57:28;99916.00;;;10.30
12854;BMP180;6495;51.808;7.478;2023-04-24T11:00:24;99914.00;;;10.30
12854;BMP180;6495;51.808;7.478;2023-04-24T11:03:28;99924.00;;;10.30
12854;BMP180;6495;51.808;7.478;2023-04-24T11:06:29;99927.00;;;10.40
12854;BMP180;6495;51.808;7.478;2023-04-24T11:09:21;99936.00;;;10.30
12854;BMP180;6495;51.808;7.478;2023-04-24T11:12:11;99941.00;;;10.40
12854;BMP180;6495;51.808;7.478;2023-04-24T11:15:01;99940.00;;;10.40
12854;BMP180;6495;51.808;7.478;2023-04-24T11:17:56;99941.00;;;10.40
12854;BMP180;6495;51.808;7.478;2023-04-24T11:20:46;99949.00;;;10.40
12854;BMP180;6495;51.808;7.478;2023-04-24T11:23:36;99962.00;;;10.40
12854;BMP180;6495;51.808;7.478;2023-04-24T11:26:26;99964.00;;;10.30
12854;BMP180;6495;51.808;7.478;2023-04-24T11:29:21;99966.00;;;10.20
12854;BMP180;6495;51.808;7.478;2023-04-24T11:32:26;99968.00;;;10.20
12854;BMP180;6495;51.808;7.478;2023-04-24T11:35:18;99983.00;;;10.10
12854;BMP180;6495;51.808;7.478;2023-04-24T11:38:10;99991.00;;;10.10
12854;BMP180;6495;51.808;7.478;2023-04-24T11:41:11;99995.00;;;10.10
12854;BMP180;6495;51.808;7.478;2023-04-24T11:44:02;100000.00;;;10.10
12854;BMP180;6495;51.808;7.478;2023-04-24T11:46:51;99999.00;;;10.20
12854;BMP180;6495;51.808;7.478;2023-04-24T11:49:40;100005.00;;;10.20
12854;BMP180;6495;51.808;7.478;2023-04-24T11:52:30;100021.00;;;10.20
12854;BMP180;6495;51.808;7.478;2023-04-24T11:55:28;100024.00;;;10.20
12854;BMP180;6495;51.808;7.478;2023-04-24T11:58:21;100022.00;;;10.20
12854;BMP180;6495;51.808;7.478;2023-04-24T12:01:10;100022.00;;;10.20
12854;BMP180;6495;51.808;7.478;2023-04-24T12:04:00;100034.00;;;10.30
12854;BMP180;6495;51.808;7.478;2023-04-24T12:07:05;100037.00;;;10.40
12854;BMP180;6495;51.808;7.478;2023-04-24T12:10:05;100034.00;;;10.40
12854;BMP180;6495;51.808;7.478;2023-04-24T12:12:59;100049.00;;;10.40
12854;BMP180;6495;51.808;7.478;2023-04-24T12:15:57;100053.00;;;10.40
12854;BMP180;6495;51.808;7.478;2023-04-24T12:18:58;100052.00;;;10.40
12854;BMP180;6495;51.808;7.478;2023-04-24T12:22:00;100053.00;;;10.50
12854;BMP180;6495;51.808;7.478;2023-04-24T12:25:00;100054.00;;;10.50
12854;BMP180;6495;51.808;7.478;2023-04-24T12:27:54;100055.00;;;10.60
12854;BMP180;6495;51.808;7.478;2023-04-24T12:30:47;100056.00;;;10.60
12854;BMP180;6495;51.808;7.478;2023-04-24T12:33:37;100060.00;;;10.70
12854;BMP180;6495;51.808;7.478;2023-04-24T12:36:26;100058.00;;;10.70
12854;BMP180;6495;51.808;7.478;2023-04-24T12:39:15;100062.00;;;10.70
12854;BMP180;6495;51.808;7.478;2023-04-24T12:42:04;100069.00;;;10.80
12854;BMP180;6495;51.808;7.478;2023-04-24T12:44:57;100077.00;;;10.90
12854;BMP180;6495;51.808;7.478;2023-04-24T12:47:48;100083.00;;;10.90
12854;BMP180;6495;51.808;7.478;2023-04-24T12:50:38;100084.00;;;11.00
12854;BMP180;6495;51.808;7.478;2023-04-24T12:53:27;100093.00;;;11.00
12854;BMP180;6495;51.808;7.478;2023-04-24T12:56:18;100100.00;;;11.00
12854;BMP180;6495;51.808;7.478;2023-04-24T12:59:14;100109.00;;;11.00
12854;BMP180;6495;51.808;7.478;2023-04-24T13:02:03;100104.00;;;11.00
12854;BMP180;6495;51.808;7.478;2023-04-24T13:04:53;100108.00;;;11.00
12854;BMP180;6495;51.808;7.478;2023-04-24T13:07:42;100110.00;;;10.90
12854;BMP180;6495;51.808;7.478;2023-04-24T13:10:30;100113.00;;;10.90
12854;BMP180;6495;51.808;7.478;2023-04-24T13:13:19;100115.00;;;10.90
12854;BMP180;6495;51.808;7.478;2023-04-24T13:16:07;100118.00;;;11.00
12854;BMP180;6495;51.808;7.478;2023-04-24T13:18:56;100132.00;;;11.00
12854;BMP180;6495;51.808;7.478;2023-04-24T13:21:46;100124.00;;;11.00
12854;BMP180;6495;51.808;7.478;2023-04-24T13:24:34;100127.00;;;11.10
12854;BMP180;6495;51.808;7.478;2023-04-24T13:27:25;100123.00;;;11.10
12854;BMP180;6495;51.808;7.478;2023-04-24T13:30:14;100129.00;;;11.10
12854;BMP180;6495;51.808;7.478;2023-04-24T13:33:03;100144.00;;;11.10
12854;BMP180;6495;51.808;7.478;2023-04-24T13:35:51;100133.00;;;11.10
12854;BMP180;6495;51.808;7.478;2023-04-24T13:38:41;100134.00;;;11.10
12854;BMP180;6495;51.808;7.478;2023-04-24T13:41:29;100132.00;;;11.10
12854;BMP180;6495;51.808;7.478;2023-04-24T13:44:23;100125.00;;;11.10
12854;BMP180;6495;51.808;7.478;2023-04-24T13:47:12;100147.00;;;11.10
12854;BMP180;6495;51.808;7.478;2023-04-24T13:50:00;100147.00;;;11.10
12854;BMP180;6495;51.808;7.478;2023-04-24T13:52:49;100138.00;;;11.10
12854;BMP180;6495;51.808;7.478;2023-04-24T13:55:39;100140.00;;;11.20
12854;BMP180;6495;51.808;7.478;2023-04-24T13:58:28;100147.00;;;11.20
12854;BMP180;6495;51.808;7.478;2023-04-24T14:01:17;100149.00;;;11.20
12854;BMP180;6495;51.808;7.478;2023-04-24T14:04:27;100155.00;;;11.20
12854;BMP180;6495;51.808;7.478;2023-04-24T14:07:15;100155.00;;;11.20
12854;BMP180;6495;51.808;7.478;2023-04-24T14:10:05;100148.00;;;11.20
12854;BMP180;6495;51.808;7.478;2023-04-24T14:12:55;100155.00;;;11.20
12854;BMP180;6495;51.808;7.478;2023-04-24T14:15:44;100159.00;;;11.20
12854;BMP180;6495;51.808;7.478;2023-04-24T14:18:32;100167.00;;;11.20
12854;BMP180;6495;51.808;7.478;2023-04-24T14:21:21;100170.00;;;11.10
12854;BMP180;6495;51.808;7.478;2023-04-24T14:28:47;100173.00;;;11.00
12854;BMP180;6495;51.808;7.478;2023-04-24T14:36:08;100175.00;;;10.90
12854;BMP180;6495;51.808;7.478;2023-04-24T14:38:57;100186.00;;;11.00
12854;BMP180;6495;51.808;7.478;2023-04-24T14:41:46;100181.00;;;11.00
12854;BMP180;6495;51.808;7.478;2023-04-24T14:44:36;100196.00;;;11.00
12854;BMP180;6495;51.808;7.478;2023-04-24T14:47:25;100203.00;;;11.00
12854;BMP180;6495;51.808;7.478;2023-04-24T14:50:13;100200.00;;;10.90
12854;BMP180;6495;51.808;7.478;2023-04-24T14:53:02;100199.00;;;10.90
12854;BMP180;6495;51.808;7.478;2023-04-24T14:55:51;100193.00;;;10.90
12854;BMP180;6495;51.808;7.478;2023-04-24T14:58:40;100205.00;;;10.90
12854;BMP180;6495;51.808;7.478;2023-04-24T15:01:30;100197.00;;;10.80
12854;BMP180;6495;51.808;7.478;2023-04-24T15:04:18;100199.00;;;10.90
12854;BMP180;6495;51.808;7.478;2023-04-24T15:07:10;100203.00;;;10.90
12854;BMP180;6495;51.808;7.478;2023-04-24T15:09:59;100204.00;;;10.90
12854;BMP180;6495;51.808;7.478;2023-04-24T15:12:47;100193.00;;;10.80
12854;BMP180;6495;51.808;7.478;2023-04-24T15:15:37;100194.00;;;10.80
12854;BMP180;6495;51.808;7.478;2023-04-24T15:18:34;100200.00;;;10.70
12854;BMP180;6495;51.808;7.478;2023-04-24T15:21:23;100203.00;;;10.70
12854;BMP180;6495;51.808;7.478;2023-04-24T15:24:12;100205.00;;;10.70
12854;BMP180;6495;51.808;7.478;2023-04-24T15:27:00;100207.00;;;10.70
12854;BMP180;6495;51.808;7.478;2023-04-24T15:29:50;100205.00;;;10.80
12854;BMP180;6495;51.808;7.478;2023-04-24T15:32:41;100205.00;;;10.80
12854;BMP180;6495;51.808;7.478;2023-04-24T15:35:31;100209.00;;;10.80
12854;BMP180;6495;51.808;7.478;2023-04-24T15:38:19;100203.00;;;10.90
12854;BMP180;6495;51.808;7.478;2023-04-24T15:41:08;100216.00;;;10.90
12854;BMP180;6495;51.808;7.478;2023-04-24T15:43:57;100211.00;;;10.90
12854;BMP180;6495;51.808;7.478;2023-04-24T15:46:45;100220.00;;;10.90
12854;BMP180;6495;51.808;7.478;2023-04-24T15:49:34;100228.00;;;10.90
12854;BMP180;6495;51.808;7.478;2023-04-24T15:52:24;100226.00;;;11.00
12854;BMP180;6495;51.808;7.478;2023-04-24T15:55:14;100228.00;;;11.00
12854;BMP180;6495;51.808;7.478;2023-04-24T15:58:03;100234.00;;;11.10
12854;BMP180;6495;51.808;7.478;2023-04-24T16:00:51;100239.00;;;11.10
12854;BMP180;6495;51.808;7.478;2023-04-24T16:03:41;100238.00;;;11.10
12854;BMP180;6495;51.808;7.478;2023-04-24T16:06:36;100240.00;;;11.10
12854;BMP180;6495;51.808;7.478;2023-04-24T16:09:26;100230.00;;;11.10
12854;BMP180;6495;51.808;7.478;2023-04-24T16:12:14;100238.00;;;11.10
12854;BMP180;6495;51.808;7.478;2023-04-24T16:15:08;100238.00;;;11.20
12854;BMP180;6495;51.808;7.478;2023-04-24T16:18:28;100230.00;;;11.20
12854;BMP180;6495;51.808;7.478;2023-04-24T16:21:45;100243.00;;;11.30
12854;BMP180;6495;51.808;7.478;2023-04-24T16:24:38;100246.00;;;11.30
12854;BMP180;6495;51.808;7.478;2023-04-24T16:27:26;100250.00;;;11.40
12854;BMP180;6495;51.808;7.478;2023-04-24T16:30:16;100245.00;;;11.40
12854;BMP180;6495;51.808;7.478;2023-04-24T16:33:05;100241.00;;;11.50
12854;BMP180;6495;51.808;7.478;2023-04-24T16:35:56;100254.00;;;11.50
12854;BMP180;6495;51.808;7.478;2023-04-24T16:38:44;100254.00;;;11.60
12854;BMP180;6495;51.808;7.478;2023-04-24T16:41:35;100250.00;;;11.60
12854;BMP180;6495;51.808;7.478;2023-04-24T16:44:23;100249.00;;;11.70
12854;BMP180;6495;51.808;7.478;2023-04-24T16:47:13;100252.00;;;11.70
12854;BMP180;6495;51.808;7.478;2023-04-24T16:50:03;100252.00;;;11.70